Ocean Eagle — V7VV2 — position and weather

sailwx.info

Track history (hours):
 
Tides and Currents Weather Stations Pressure Air Temp Water Temp Dewpoint Dewpoint Depression Visibility Wind Speed Wind Dir Waves Ship Positions

Ocean Eagle

Last reported at 2017-Sep-26 12:36 UTC. Time now 2017-Oct-19 09:21 UTC.
Position S 33°01' W 071°48'.
Warning: this ship's position is 22 days out of date.

Length 225 m; draft 9 m.

Type: Cargo ship. MMSI: 538004221.

Date/timePositionNaut miles runAvg speedWind from/ knotsBaromVisibWave heightAir tempDewpointWater temp
2017-Sep-26 12:36S 33°01' W 071°48'1 8.6
2017-Sep-26 12:29S 33°00' W 071°47'4 8.4
2017-Sep-26 11:59S 32°58' W 071°43'4 8.7
2017-Sep-26 11:30S 32°57' W 071°38'4 7.8
2017-Sep-26 11:00S 33°01' W 071°36'1 1.2
2017-Sep-26 10:13S 33°01' W 071°37'2 4.3
2017-Sep-26 09:48S 32°59' W 071°38'2 6.3
2017-Sep-26 09:30S 32°57' W 071°38'4 8.0
2017-Sep-26 09:00S 32°53' W 071°39'5 9.1
2017-Sep-26 08:30S 32°49' W 071°40'  
Track history (hours):
 
Tides and Currents Weather Stations Pressure Air Temp Water Temp Dewpoint Dewpoint Depression Visibility Wind Speed Wind Dir Waves Ship Positions

Ocean Eagle

Last reported at 2017-Sep-26 12:36 UTC. Time now 2017-Oct-19 09:21 UTC.
Position S 33°01' W 071°48'.
Warning: this ship's position is 22 days out of date.

Length 225 m; draft 9 m.

Type: Cargo ship. MMSI: 538004221.

Date/timePositionNaut miles runAvg speedWind from/ knotsBaromVisibWave heightAir tempDewpointWater temp
2017-Sep-26 12:36S 33°01' W 071°48'1 8.6
2017-Sep-26 12:29S 33°00' W 071°47'4 8.4
2017-Sep-26 11:59S 32°58' W 071°43'4 8.7
2017-Sep-26 11:30S 32°57' W 071°38'4 7.8
2017-Sep-26 11:00S 33°01' W 071°36'1 1.2
2017-Sep-26 10:13S 33°01' W 071°37'2 4.3
2017-Sep-26 09:48S 32°59' W 071°38'2 6.3
2017-Sep-26 09:30S 32°57' W 071°38'4 8.0
2017-Sep-26 09:00S 32°53' W 071°39'5 9.1
2017-Sep-26 08:30S 32°49' W 071°40'  

Dump ship's entire track history